Time;durP1;ratioP1;P1;durP2;ratioP2;P2;SDS_P1;SDS_P2;PMS_P1;PMS_P2;Temp;Humidity;BMP_temperature;BMP_pressure;BME280_temperature;BME280_humidity;BME280_pressure;Samples;Min_cycle;Max_cycle;Signal;HPM_P1;HPM_P2
2021/12/17 00:04:30;;;;;;;71.38;40.13;;;;;;;;;;4917189;29;20037;-66
2021/12/17 00:06:56;;;;;;;72.75;39.33;;;;;;;;;;4917144;29;20032;-67
2021/12/17 00:09:22;;;;;;;67.05;39.00;;;;;;;;;;4916859;29;20028;-66
2021/12/17 00:11:48;;;;;;;69.45;39.10;;;;;;;;;;4916929;29;20095;-66
2021/12/17 00:14:24;;;;;;;69.68;39.40;;;;;;;;;;4915900;29;20127;-66
2021/12/17 00:16:50;;;;;;;67.95;38.90;;;;;;;;;;4916671;29;20444;-66
2021/12/17 00:49:21;;;;;;;51.45;32.28;;;;;;;;;;4876276;29;20073;-66
2021/12/17 00:51:59;;;;;;;57.67;33.67;;;;;;;;;;4876143;29;20097;-65
2021/12/17 00:54:33;;;;;;;56.42;32.88;;;;;;;;;;4876438;29;20817;-65
2021/12/17 00:57:01;;;;;;;50.50;31.95;;;;;;;;;;4876369;29;20112;-65
2021/12/17 00:59:28;;;;;;;52.35;31.38;;;;;;;;;;4876210;29;20517;-65
2021/12/17 01:01:55;;;;;;;55.60;32.42;;;;;;;;;;4876336;29;20069;-65
2021/12/17 01:04:21;;;;;;;56.05;32.60;;;;;;;;;;4875961;29;20049;-65
2021/12/17 01:06:47;;;;;;;51.03;32.05;;;;;;;;;;4876058;29;20494;-66
2021/12/17 01:09:16;;;;;;;48.58;30.85;;;;;;;;;;4875835;29;20096;-66
2021/12/17 01:11:42;;;;;;;47.35;29.70;;;;;;;;;;4899287;29;20040;-66
2021/12/17 01:14:08;;;;;;;45.58;29.33;;;;;;;;;;4915329;29;20365;-66
2021/12/17 01:16:34;;;;;;;48.17;30.13;;;;;;;;;;4915741;29;20488;-67
2021/12/17 01:19:21;;;;;;;44.38;28.40;;;;;;;;;;4913939;29;20490;-67
2021/12/17 01:24:30;;;;;;;49.88;29.17;;;;;;;;;;4915589;29;20039;-66
2021/12/17 01:35:23;;;;;;;43.03;27.30;;;;;;;;;;4876032;29;20028;-66
2021/12/17 01:43:07;;;;;;;73.05;36.88;;;;;;;;;;4875761;29;20099;-66
2021/12/17 01:45:37;;;;;;;63.90;33.35;;;;;;;;;;4875710;29;20489;-66
2021/12/17 01:48:06;;;;;;;51.00;29.05;;;;;;;;;;4875483;29;20041;-66
2021/12/17 02:01:14;;;;;;;48.65;29.27;;;;;;;;;;4875885;29;20117;-66
2021/12/17 02:03:40;;;;;;;47.28;28.40;;;;;;;;;;4875642;29;20470;-66
2021/12/17 02:06:06;;;;;;;48.35;28.30;;;;;;;;;;4875720;29;20133;-66
2021/12/17 02:08:33;;;;;;;40.30;26.00;;;;;;;;;;4879192;29;20033;-66
2021/12/17 02:22:09;;;;;;;40.63;25.33;;;;;;;;;;4915147;29;20143;-66
2021/12/17 02:32:48;;;;;;;36.88;24.40;;;;;;;;;;4914817;29;20202;-65
2021/12/17 02:37:47;;;;;;;36.88;24.67;;;;;;;;;;4915823;29;20040;-65
2021/12/17 02:45:32;;;;;;;39.03;24.17;;;;;;;;;;4918633;29;20488;-65
2021/12/17 02:45:36;;;;;;;38.15;24.13;;;;;;;;;;4918467;29;20042;-65
2021/12/17 02:48:07;;;;;;;37.33;24.05;;;;;;;;;;4918430;29;20864;-65
2021/12/17 02:50:34;;;;;;;35.90;23.85;;;;;;;;;;4918379;29;20083;-66
2021/12/17 02:53:02;;;;;;;34.33;23.17;;;;;;;;;;4918264;29;20146;-65
2021/12/17 02:55:29;;;;;;;35.33;22.88;;;;;;;;;;4918353;29;20020;-65
2021/12/17 02:57:55;;;;;;;39.28;24.08;;;;;;;;;;4918418;29;20024;-65
2021/12/17 03:00:21;;;;;;;33.75;22.27;;;;;;;;;;4918411;29;20024;-65
2021/12/17 03:02:48;;;;;;;33.33;22.27;;;;;;;;;;4919840;29;20473;-65
2021/12/17 03:05:14;;;;;;;34.67;22.40;;;;;;;;;;4919793;29;20462;-65
2021/12/17 03:07:43;;;;;;;35.50;22.45;;;;;;;;;;4918989;29;20477;-66
2021/12/17 03:10:12;;;;;;;34.88;22.05;;;;;;;;;;4918388;29;20619;-65
2021/12/17 03:25:30;;;;;;;35.97;23.13;;;;;;;;;;4917857;29;20031;-65
2021/12/17 03:27:57;;;;;;;35.90;22.50;;;;;;;;;;4918061;29;20064;-66
2021/12/17 03:30:23;;;;;;;34.38;22.58;;;;;;;;;;4918138;29;20043;-66
2021/12/17 03:32:49;;;;;;;35.60;23.60;;;;;;;;;;4917795;29;20036;-66
2021/12/17 03:35:15;;;;;;;36.33;23.58;;;;;;;;;;4917870;29;20020;-65
2021/12/17 03:37:41;;;;;;;35.67;22.42;;;;;;;;;;4917665;29;20028;-65
2021/12/17 03:40:07;;;;;;;35.30;22.98;;;;;;;;;;4917706;29;20029;-65
2021/12/17 03:42:33;;;;;;;32.45;21.27;;;;;;;;;;4917768;29;20028;-65
2021/12/17 03:44:59;;;;;;;32.60;20.80;;;;;;;;;;4917781;29;20020;-65
2021/12/17 03:47:27;;;;;;;30.83;20.45;;;;;;;;;;4917557;29;20040;-65
2021/12/17 03:49:53;;;;;;;31.83;21.02;;;;;;;;;;4917511;29;20028;-65
2021/12/17 03:52:20;;;;;;;34.20;21.77;;;;;;;;;;4915649;29;20404;-65
2021/12/17 03:54:46;;;;;;;31.65;20.90;;;;;;;;;;4917251;29;20032;-65
2021/12/17 03:57:16;;;;;;;34.08;21.63;;;;;;;;;;4917241;29;20485;-65
2021/12/17 03:59:42;;;;;;;33.78;21.80;;;;;;;;;;4917335;29;20366;-66
2021/12/17 04:02:08;;;;;;;34.78;22.00;;;;;;;;;;4917162;29;20424;-65
2021/12/17 04:04:34;;;;;;;32.47;20.25;;;;;;;;;;4917185;29;20098;-66
2021/12/17 04:07:00;;;;;;;33.05;21.25;;;;;;;;;;4917234;29;20036;-65
2021/12/17 04:09:29;;;;;;;32.33;21.02;;;;;;;;;;4917020;29;20021;-65
2021/12/17 04:11:55;;;;;;;31.83;20.90;;;;;;;;;;4916608;29;20476;-65
2021/12/17 04:14:32;;;;;;;33.50;21.52;;;;;;;;;;4917089;29;20059;-65
2021/12/17 04:17:03;;;;;;;30.58;20.70;;;;;;;;;;4916670;29;20511;-65
2021/12/17 04:19:29;;;;;;;32.28;21.15;;;;;;;;;;4916878;29;20433;-65
2021/12/17 04:21:55;;;;;;;32.90;21.40;;;;;;;;;;4916717;29;20044;-65
2021/12/17 04:24:21;;;;;;;30.05;20.23;;;;;;;;;;4916859;29;20614;-65
2021/12/17 04:26:47;;;;;;;34.63;21.60;;;;;;;;;;4916751;29;20119;-65
2021/12/17 04:29:14;;;;;;;33.70;22.60;;;;;;;;;;4916914;29;20344;-65
2021/12/17 04:31:40;;;;;;;37.25;21.95;;;;;;;;;;4899357;29;20055;-65
2021/12/17 04:34:06;;;;;;;31.30;21.17;;;;;;;;;;4916571;29;20564;-65
2021/12/17 04:36:35;;;;;;;32.67;20.55;;;;;;;;;;4916566;29;20032;-65
2021/12/17 04:39:02;;;;;;;32.97;21.52;;;;;;;;;;4916130;29;20028;-65
2021/12/17 04:59:49;;;;;;;38.30;22.58;;;;;;;;;;4916353;29;20028;-66
2021/12/17 05:02:16;;;;;;;35.03;22.23;;;;;;;;;;4916035;29;20036;-66
2021/12/17 05:04:43;;;;;;;36.10;23.00;;;;;;;;;;4916278;29;20025;-65
2021/12/17 05:07:12;;;;;;;37.70;22.88;;;;;;;;;;4916199;29;20072;-68
2021/12/17 05:09:51;;;;;;;39.35;24.95;;;;;;;;;;4916180;29;20067;-65
2021/12/17 05:20:44;;;;;;;39.25;23.92;;;;;;;;;;4915752;29;20044;-65
2021/12/17 05:23:10;;;;;;;39.38;23.52;;;;;;;;;;4915773;29;20035;-65
2021/12/17 05:25:36;;;;;;;40.05;23.67;;;;;;;;;;4915906;29;20028;-66
2021/12/17 05:28:02;;;;;;;39.35;24.02;;;;;;;;;;4915975;29;20032;-65
2021/12/17 05:30:29;;;;;;;38.92;23.30;;;;;;;;;;4915913;29;20028;-66
2021/12/17 05:32:56;;;;;;;38.05;24.20;;;;;;;;;;4915487;29;20473;-65
2021/12/17 05:35:22;;;;;;;39.45;26.17;;;;;;;;;;4915296;29;20032;-65
2021/12/17 05:37:48;;;;;;;37.97;24.38;;;;;;;;;;4915498;29;20032;-65
2021/12/17 05:40:14;;;;;;;37.85;23.30;;;;;;;;;;4915340;29;20032;-65
2021/12/17 05:42:42;;;;;;;38.63;23.85;;;;;;;;;;4915168;29;20035;-65
2021/12/17 05:45:21;;;;;;;37.35;24.00;;;;;;;;;;4915426;29;20063;-65
2021/12/17 05:47:47;;;;;;;37.97;24.10;;;;;;;;;;4915448;29;20384;-65
2021/12/17 05:50:13;;;;;;;39.53;23.58;;;;;;;;;;4915184;29;20020;-66
2021/12/17 05:52:39;;;;;;;40.05;25.23;;;;;;;;;;4915006;29;20043;-65
2021/12/17 05:55:06;;;;;;;34.83;22.02;;;;;;;;;;4915163;29;20111;-65
2021/12/17 05:57:32;;;;;;;43.22;25.20;;;;;;;;;;4915228;29;20028;-65
2021/12/17 06:00:00;;;;;;;38.80;24.33;;;;;;;;;;4915364;29;20028;-65
2021/12/17 06:02:26;;;;;;;37.92;22.50;;;;;;;;;;4915397;29;20114;-65
2021/12/17 06:04:52;;;;;;;37.55;23.73;;;;;;;;;;4915460;29;20036;-66
2021/12/17 06:07:36;;;;;;;36.25;23.00;;;;;;;;;;4915264;29;20396;-65
2021/12/17 06:10:04;;;;;;;36.10;22.88;;;;;;;;;;4915266;29;20024;-65
2021/12/17 06:12:30;;;;;;;38.53;23.77;;;;;;;;;;4914058;29;20733;-65
2021/12/17 06:14:56;;;;;;;37.95;23.08;;;;;;;;;;4915286;29;20031;-65
2021/12/17 06:17:22;;;;;;;37.97;23.73;;;;;;;;;;4914792;29;20991;-65
2021/12/17 06:19:48;;;;;;;34.83;22.58;;;;;;;;;;4913358;29;20119;-65
2021/12/17 06:22:15;;;;;;;34.90;21.85;;;;;;;;;;4914918;29;20024;-66
2021/12/17 06:24:44;;;;;;;41.38;26.52;;;;;;;;;;4915116;29;20032;-65
2021/12/17 06:27:13;;;;;;;37.75;22.80;;;;;;;;;;4914813;29;20500;-64
2021/12/17 06:29:40;;;;;;;35.03;21.23;;;;;;;;;;4914782;29;20040;-64
2021/12/17 06:32:07;;;;;;;34.53;22.38;;;;;;;;;;4913903;29;20072;-65
2021/12/17 06:34:33;;;;;;;35.63;21.95;;;;;;;;;;4913657;29;20047;-65
2021/12/17 06:36:59;;;;;;;32.45;19.80;;;;;;;;;;4913393;29;20079;-67
2021/12/17 06:39:25;;;;;;;30.08;18.70;;;;;;;;;;4912125;29;20357;-66
2021/12/17 06:41:51;;;;;;;32.80;19.55;;;;;;;;;;4914215;29;20075;-68
2021/12/17 06:44:22;;;;;;;30.00;18.73;;;;;;;;;;4914345;29;20028;-65
2021/12/17 06:46:58;;;;;;;31.33;19.70;;;;;;;;;;4914732;29;20562;-65
2021/12/17 07:10:50;;;;;;;26.48;15.65;;;;;;;;;;4911696;29;20731;-69
2021/12/17 07:20:00;;;;;;;23.35;15.05;;;;;;;;;;4914585;29;20119;-65
2021/12/17 07:35:27;;;;;;;23.35;14.48;;;;;;;;;;4917709;29;20502;-66
2021/12/17 07:40:38;;;;;;;22.73;13.45;;;;;;;;;;4917108;29;20046;-69
2021/12/17 07:43:11;;;;;;;26.25;15.27;;;;;;;;;;4917304;29;20028;-70
2021/12/17 07:45:40;;;;;;;23.92;15.10;;;;;;;;;;4915727;29;20027;-65
2021/12/17 07:48:06;;;;;;;27.95;16.38;;;;;;;;;;4916928;29;20413;-69
2021/12/17 07:50:33;;;;;;;25.92;15.98;;;;;;;;;;4917051;29;20437;-69
2021/12/17 07:52:59;;;;;;;25.48;15.55;;;;;;;;;;4916742;29;20036;-68
2021/12/17 07:55:25;;;;;;;30.17;18.85;;;;;;;;;;4916933;29;20028;-68
2021/12/17 07:57:51;;;;;;;23.83;14.98;;;;;;;;;;4916682;29;20042;-68
2021/12/17 08:00:17;;;;;;;24.38;14.73;;;;;;;;;;4916496;29;20357;-65
2021/12/17 08:02:43;;;;;;;27.02;16.70;;;;;;;;;;4917112;29;20387;-66
2021/12/17 08:05:09;;;;;;;32.22;18.02;;;;;;;;;;4917308;29;20388;-69
2021/12/17 08:07:35;;;;;;;29.25;17.05;;;;;;;;;;4917213;29;20032;-69
2021/12/17 08:10:01;;;;;;;29.85;16.38;;;;;;;;;;4917186;29;20020;-71
2021/12/17 08:12:27;;;;;;;26.85;15.38;;;;;;;;;;4916615;29;20052;-70
2021/12/17 08:14:53;;;;;;;22.10;14.10;;;;;;;;;;4916984;29;20081;-71
2021/12/17 08:25:38;;;;;;;21.77;13.85;;;;;;;;;;4916464;29;20040;-68
2021/12/17 08:28:05;;;;;;;23.92;14.30;;;;;;;;;;4916622;29;20485;-69
2021/12/17 08:30:38;;;;;;;21.23;13.13;;;;;;;;;;4916166;29;20024;-69
2021/12/17 08:33:06;;;;;;;23.90;14.13;;;;;;;;;;4916438;29;20123;-68
2021/12/17 08:35:38;;;;;;;21.80;13.18;;;;;;;;;;4915049;29;20028;-68
2021/12/17 08:38:07;;;;;;;22.00;12.77;;;;;;;;;;4916005;29;20028;-70
2021/12/17 08:40:34;;;;;;;20.42;12.18;;;;;;;;;;4916202;29;20498;-67
2021/12/17 08:43:01;;;;;;;20.92;13.15;;;;;;;;;;4916474;29;20057;-68
2021/12/17 08:45:27;;;;;;;17.58;10.52;;;;;;;;;;4916465;29;20038;-64
2021/12/17 08:47:53;;;;;;;21.75;13.63;;;;;;;;;;4916086;29;20123;-70
2021/12/17 08:50:20;;;;;;;21.25;11.98;;;;;;;;;;4916352;29;20028;-68
2021/12/17 08:52:47;;;;;;;23.00;14.05;;;;;;;;;;4915626;29;20095;-71
2021/12/17 08:55:13;;;;;;;20.40;12.73;;;;;;;;;;4916304;29;20068;-68
2021/12/17 08:57:40;;;;;;;23.52;12.60;;;;;;;;;;4916108;29;20107;-65
2021/12/17 09:00:08;;;;;;;32.20;18.58;;;;;;;;;;4916215;29;20040;-72
2021/12/17 09:02:36;;;;;;;25.98;17.40;;;;;;;;;;4915616;29;20487;-67
2021/12/17 09:05:03;;;;;;;21.88;12.52;;;;;;;;;;4915860;29;20047;-68
2021/12/17 09:07:29;;;;;;;22.33;12.38;;;;;;;;;;4915518;29;20024;-70
2021/12/17 09:09:55;;;;;;;21.00;11.93;;;;;;;;;;4915973;29;20080;-70
2021/12/17 09:12:21;;;;;;;21.50;13.00;;;;;;;;;;4914949;29;20442;-68
2021/12/17 09:14:48;;;;;;;17.88;10.98;;;;;;;;;;4913587;29;20024;-70
2021/12/17 09:17:14;;;;;;;20.25;12.57;;;;;;;;;;4914718;29;20536;-68
2021/12/17 09:19:40;;;;;;;19.02;11.65;;;;;;;;;;4915417;29;20111;-71
2021/12/17 09:22:06;;;;;;;21.08;11.57;;;;;;;;;;4915191;29;20047;-70
2021/12/17 09:24:32;;;;;;;26.88;10.25;;;;;;;;;;4915163;29;20413;-72
2021/12/17 09:26:59;;;;;;;18.08;10.23;;;;;;;;;;4915191;29;20059;-71
2021/12/17 09:29:25;;;;;;;17.13;8.82;;;;;;;;;;4915322;29;20028;-71
2021/12/17 09:31:51;;;;;;;18.08;10.93;;;;;;;;;;4915536;29;20068;-68
2021/12/17 09:34:17;;;;;;;22.33;12.00;;;;;;;;;;4915079;29;20024;-73
2021/12/17 09:36:43;;;;;;;14.77;7.90;;;;;;;;;;4915070;29;20080;-69
2021/12/17 09:39:09;;;;;;;18.13;11.02;;;;;;;;;;4915421;29;20457;-70
2021/12/17 09:41:36;;;;;;;34.35;18.08;;;;;;;;;;4914804;29;20031;-70
2021/12/17 09:44:02;;;;;;;193.13;91.13;;;;;;;;;;4915261;29;20115;-71
2021/12/17 09:46:28;;;;;;;55.08;28.98;;;;;;;;;;4915137;29;20156;-77
2021/12/17 09:48:54;;;;;;;19.55;13.68;;;;;;;;;;4915493;29;20111;-67
2021/12/17 09:51:21;;;;;;;17.63;9.95;;;;;;;;;;4913906;29;20064;-69
2021/12/17 09:53:47;;;;;;;13.70;8.93;;;;;;;;;;4910674;29;20040;-67
2021/12/17 09:56:13;;;;;;;18.08;10.95;;;;;;;;;;4913945;29;20032;-68
2021/12/17 09:58:39;;;;;;;16.98;10.95;;;;;;;;;;4914023;29;20112;-72
2021/12/17 10:01:06;;;;;;;12.63;6.85;;;;;;;;;;4915090;29;20430;-69
2021/12/17 10:03:32;;;;;;;17.17;9.02;;;;;;;;;;4914562;29;20028;-71
2021/12/17 10:05:58;;;;;;;16.08;10.48;;;;;;;;;;4915040;29;20605;-74
2021/12/17 10:08:25;;;;;;;18.23;11.05;;;;;;;;;;4914560;29;20043;-68
2021/12/17 10:11:02;;;;;;;17.50;10.25;;;;;;;;;;4915138;29;20332;-70
2021/12/17 10:13:29;;;;;;;17.58;10.65;;;;;;;;;;4914165;29;20545;-66
2021/12/17 10:16:01;;;;;;;13.98;8.07;;;;;;;;;;4914972;29;20540;-70
2021/12/17 10:18:34;;;;;;;12.98;8.35;;;;;;;;;;4914707;29;20388;-69
2021/12/17 10:21:08;;;;;;;18.10;11.13;;;;;;;;;;4914520;29;20118;-70
2021/12/17 10:23:34;;;;;;;21.15;13.13;;;;;;;;;;4914473;29;20032;-71
2021/12/17 10:26:01;;;;;;;20.73;13.13;;;;;;;;;;4914454;29;20485;-73
2021/12/17 10:28:27;;;;;;;21.75;11.75;;;;;;;;;;4914705;29;20028;-68
2021/12/17 10:30:55;;;;;;;23.20;13.10;;;;;;;;;;4914988;29;20480;-72
2021/12/17 10:33:24;;;;;;;17.83;10.25;;;;;;;;;;4914452;29;20055;-67
2021/12/17 10:35:51;;;;;;;25.38;14.30;;;;;;;;;;4914227;29;20039;-72
2021/12/17 10:38:22;;;;;;;20.98;12.48;;;;;;;;;;4914662;29;20057;-72
2021/12/17 10:43:38;;;;;;;21.35;12.40;;;;;;;;;;4914003;29;20116;-69
2021/12/17 10:46:09;;;;;;;18.17;11.55;;;;;;;;;;4914555;29;20496;-69
2021/12/17 10:51:15;;;;;;;17.70;12.20;;;;;;;;;;4914421;29;20037;-65
2021/12/17 10:54:03;;;;;;;19.23;12.00;;;;;;;;;;4914009;29;20067;-65
2021/12/17 10:56:33;;;;;;;18.83;11.30;;;;;;;;;;4914674;29;20079;-66
2021/12/17 10:59:18;;;;;;;18.08;10.07;;;;;;;;;;4915338;29;20024;-65
2021/12/17 11:01:44;;;;;;;19.15;11.38;;;;;;;;;;4917503;29;20042;-64
2021/12/17 11:04:37;;;;;;;23.83;11.93;;;;;;;;;;4918341;29;20078;-68
2021/12/17 11:07:04;;;;;;;19.05;11.65;;;;;;;;;;4915877;29;20467;-71
2021/12/17 11:09:49;;;;;;;19.77;11.48;;;;;;;;;;4918064;29;20069;-70
2021/12/17 11:12:17;;;;;;;18.20;11.48;;;;;;;;;;4917507;29;20039;-70
2021/12/17 11:14:44;;;;;;;20.23;11.88;;;;;;;;;;4918302;29;20067;-69
2021/12/17 11:17:11;;;;;;;21.30;13.02;;;;;;;;;;4917424;29;20043;-68
2021/12/17 11:19:37;;;;;;;19.08;12.13;;;;;;;;;;4917341;29;20392;-71
2021/12/17 11:22:04;;;;;;;23.40;13.80;;;;;;;;;;4917794;29;20036;-71
2021/12/17 11:24:31;;;;;;;23.42;15.25;;;;;;;;;;4917711;29;20024;-65
2021/12/17 11:26:57;;;;;;;26.42;14.10;;;;;;;;;;4917558;29;20052;-71
2021/12/17 11:29:23;;;;;;;25.45;15.00;;;;;;;;;;4917877;29;20031;-69
2021/12/17 11:31:50;;;;;;;23.25;14.00;;;;;;;;;;4917568;29;20096;-66
2021/12/17 11:34:19;;;;;;;26.38;14.55;;;;;;;;;;4917303;29;20028;-64
2021/12/17 11:36:46;;;;;;;24.17;14.32;;;;;;;;;;4917509;29;20036;-67
2021/12/17 11:39:21;;;;;;;25.63;15.60;;;;;;;;;;4917398;29;20027;-65
2021/12/17 11:41:50;;;;;;;29.60;15.68;;;;;;;;;;4916848;29;20051;-65
2021/12/17 11:44:19;;;;;;;32.15;16.40;;;;;;;;;;4917386;29;20049;-66
2021/12/17 11:47:00;;;;;;;27.27;16.80;;;;;;;;;;4917417;29;20021;-65
2021/12/17 11:49:26;;;;;;;25.15;15.38;;;;;;;;;;4917336;29;20083;-66
2021/12/17 11:51:54;;;;;;;31.40;16.33;;;;;;;;;;4916811;29;20087;-64
2021/12/17 11:54:26;;;;;;;27.67;16.65;;;;;;;;;;4916648;29;20028;-65
2021/12/17 11:56:55;;;;;;;25.58;15.70;;;;;;;;;;4916541;29;20362;-64
2021/12/17 11:59:28;;;;;;;35.00;18.17;;;;;;;;;;4917257;29;20357;-66
2021/12/17 12:02:08;;;;;;;30.13;17.65;;;;;;;;;;4916749;29;20038;-66
2021/12/17 12:04:34;;;;;;;33.70;18.83;;;;;;;;;;4917200;29;20047;-65
2021/12/17 12:07:00;;;;;;;31.00;17.90;;;;;;;;;;4916829;29;20073;-64
2021/12/17 12:09:45;;;;;;;33.55;18.17;;;;;;;;;;4916456;29;20028;-66
2021/12/17 12:12:11;;;;;;;31.13;17.98;;;;;;;;;;4915910;29;20483;-67
2021/12/17 12:14:37;;;;;;;31.73;18.02;;;;;;;;;;4916970;29;20032;-67
2021/12/17 12:17:03;;;;;;;28.38;16.58;;;;;;;;;;4916588;29;20111;-67
2021/12/17 12:19:47;;;;;;;27.05;15.48;;;;;;;;;;4916791;29;20032;-66
2021/12/17 12:22:14;;;;;;;25.13;14.32;;;;;;;;;;4916375;29;20064;-65
2021/12/17 12:24:40;;;;;;;25.33;13.90;;;;;;;;;;4916272;29;20024;-67
2021/12/17 12:27:06;;;;;;;21.20;12.48;;;;;;;;;;4916797;29;20488;-67
2021/12/17 12:29:32;;;;;;;24.65;13.43;;;;;;;;;;4916270;29;20365;-67
2021/12/17 12:31:59;;;;;;;23.55;12.23;;;;;;;;;;4916346;29;20036;-67
2021/12/17 12:34:28;;;;;;;21.30;12.75;;;;;;;;;;4916629;29;20131;-66
2021/12/17 12:36:54;;;;;;;23.30;11.90;;;;;;;;;;4916487;29;20081;-66
2021/12/17 12:39:24;;;;;;;23.05;11.30;;;;;;;;;;4916462;29;20484;-68
2021/12/17 12:41:50;;;;;;;21.83;12.55;;;;;;;;;;4914783;29;20028;-68
2021/12/17 12:44:16;;;;;;;21.17;13.00;;;;;;;;;;4914998;29;20024;-66
2021/12/17 12:46:49;;;;;;;21.33;12.55;;;;;;;;;;4914879;29;20043;-67
2021/12/17 12:49:34;;;;;;;21.27;10.80;;;;;;;;;;4915465;29;20034;-67
2021/12/17 12:52:19;;;;;;;26.15;14.15;;;;;;;;;;4916122;29;20496;-67
2021/12/17 12:54:48;;;;;;;23.95;13.35;;;;;;;;;;4916041;29;20032;-67
2021/12/17 12:57:23;;;;;;;24.10;13.70;;;;;;;;;;4914621;29;20068;-65
2021/12/17 12:59:51;;;;;;;22.70;13.20;;;;;;;;;;4915956;29;20082;-66
2021/12/17 13:02:18;;;;;;;25.08;14.48;;;;;;;;;;4915919;29;20024;-66
2021/12/17 13:04:44;;;;;;;18.00;10.88;;;;;;;;;;4915984;29;20103;-66
2021/12/17 13:07:10;;;;;;;27.50;12.88;;;;;;;;;;4915544;29;20028;-64
2021/12/17 13:09:42;;;;;;;30.20;15.02;;;;;;;;;;4915877;29;20119;-66
2021/12/17 13:12:08;;;;;;;27.08;14.57;;;;;;;;;;4915336;29;20028;-66
2021/12/17 13:14:41;;;;;;;25.42;13.43;;;;;;;;;;4916095;29;20043;-66
2021/12/17 13:17:39;;;;;;;32.28;16.13;;;;;;;;;;4915523;29;20032;-67
2021/12/17 13:20:41;;;;;;;23.38;14.10;;;;;;;;;;4915458;29;20051;-66
2021/12/17 13:23:13;;;;;;;20.92;12.23;;;;;;;;;;4915114;29;20055;-65
2021/12/17 13:25:39;;;;;;;26.80;14.88;;;;;;;;;;4915292;29;20051;-65
2021/12/17 13:28:06;;;;;;;23.98;12.43;;;;;;;;;;4915110;29;20024;-63
2021/12/17 13:30:32;;;;;;;23.98;13.07;;;;;;;;;;4915568;29;20042;-66
2021/12/17 13:32:58;;;;;;;24.23;13.88;;;;;;;;;;4915273;29;20044;-65
2021/12/17 13:35:26;;;;;;;22.23;12.73;;;;;;;;;;4915236;29;20032;-63
2021/12/17 13:37:57;;;;;;;30.60;15.07;;;;;;;;;;4915308;29;20595;-66
2021/12/17 13:40:25;;;;;;;26.92;13.88;;;;;;;;;;4914975;29;20563;-65
2021/12/17 13:42:52;;;;;;;31.88;19.10;;;;;;;;;;4915094;29;20036;-65
2021/12/17 13:45:20;;;;;;;41.10;18.98;;;;;;;;;;4915351;29;20052;-64
2021/12/17 13:47:51;;;;;;;25.95;14.70;;;;;;;;;;4912776;29;20453;-68
2021/12/17 13:50:23;;;;;;;20.15;11.20;;;;;;;;;;4915034;29;20024;-65
2021/12/17 13:52:54;;;;;;;24.80;14.43;;;;;;;;;;4915013;29;20048;-65
2021/12/17 13:55:26;;;;;;;28.00;14.80;;;;;;;;;;4913180;29;20405;-66
2021/12/17 13:57:52;;;;;;;26.50;15.38;;;;;;;;;;4914608;29;20032;-64
2021/12/17 14:00:24;;;;;;;26.70;15.27;;;;;;;;;;4915082;29;20112;-65
2021/12/17 14:02:51;;;;;;;24.95;14.48;;;;;;;;;;4915077;29;20087;-67
2021/12/17 14:05:26;;;;;;;24.58;14.50;;;;;;;;;;4914478;29;20185;-65
2021/12/17 14:07:53;;;;;;;21.00;12.32;;;;;;;;;;4914320;29;20062;-64
2021/12/17 14:10:22;;;;;;;27.90;15.25;;;;;;;;;;4914698;29;20055;-65
2021/12/17 14:12:48;;;;;;;28.30;17.13;;;;;;;;;;4914277;29;20142;-67
2021/12/17 14:15:33;;;;;;;25.63;14.68;;;;;;;;;;4914605;29;20028;-65
2021/12/17 14:18:01;;;;;;;23.58;13.43;;;;;;;;;;4915114;29;20095;-66
2021/12/17 14:20:38;;;;;;;28.35;16.13;;;;;;;;;;4914281;29;20107;-65
2021/12/17 14:23:06;;;;;;;21.95;13.15;;;;;;;;;;4914279;29;20040;-66
2021/12/17 14:25:39;;;;;;;24.20;13.27;;;;;;;;;;4914662;29;20028;-65
2021/12/17 14:28:09;;;;;;;22.23;13.25;;;;;;;;;;4914452;29;20039;-66
2021/12/17 14:30:35;;;;;;;26.77;14.20;;;;;;;;;;4914636;29;20036;-68
2021/12/17 14:33:12;;;;;;;25.77;14.88;;;;;;;;;;4914126;29;20044;-67
2021/12/17 14:35:50;;;;;;;25.80;13.18;;;;;;;;;;4918570;29;20035;-66
2021/12/17 14:38:17;;;;;;;24.00;13.75;;;;;;;;;;4918334;29;20024;-65
2021/12/17 14:40:52;;;;;;;27.23;14.65;;;;;;;;;;4918539;29;20024;-66
2021/12/17 14:43:19;;;;;;;25.73;16.13;;;;;;;;;;4917636;29;20024;-65
2021/12/17 14:45:52;;;;;;;29.25;14.85;;;;;;;;;;4918064;29;20084;-65
2021/12/17 14:48:21;;;;;;;27.55;15.38;;;;;;;;;;4918332;29;20024;-66
2021/12/17 15:04:48;;;;;;;21.33;12.63;;;;;;;;;;4917344;29;20043;-67
2021/12/17 15:07:14;;;;;;;25.50;14.25;;;;;;;;;;4917467;29;20032;-67
2021/12/17 15:09:43;;;;;;;23.35;13.00;;;;;;;;;;4917678;29;20035;-68
2021/12/17 15:12:44;;;;;;;22.50;11.50;;;;;;;;;;4917261;29;20105;-67
2021/12/17 15:15:08;;;;;;;25.52;14.02;;;;;;;;;;4915606;29;20074;-69
2021/12/17 15:17:34;;;;;;;25.30;12.75;;;;;;;;;;4917620;29;20028;-68
2021/12/17 15:20:00;;;;;;;23.10;12.13;;;;;;;;;;4917754;29;20064;-68
2021/12/17 15:22:27;;;;;;;24.35;12.55;;;;;;;;;;4916663;29;20044;-66
2021/12/17 15:24:53;;;;;;;23.38;12.93;;;;;;;;;;4917223;29;20095;-66
2021/12/17 15:27:20;;;;;;;24.63;14.07;;;;;;;;;;4917296;29;20055;-65
2021/12/17 15:29:47;;;;;;;26.27;14.73;;;;;;;;;;4917912;29;20383;-65
2021/12/17 15:32:13;;;;;;;25.05;13.15;;;;;;;;;;4917285;29;20123;-65
2021/12/17 15:34:39;;;;;;;21.58;13.23;;;;;;;;;;4917102;29;20091;-64
2021/12/17 15:37:05;;;;;;;24.25;13.48;;;;;;;;;;4917385;29;20118;-65
2021/12/17 15:39:31;;;;;;;24.83;13.20;;;;;;;;;;4917488;29;20115;-67
2021/12/17 15:41:57;;;;;;;32.03;16.15;;;;;;;;;;4916104;29;20043;-68
2021/12/17 15:44:23;;;;;;;26.80;15.07;;;;;;;;;;4917190;29;20035;-66
2021/12/17 15:46:50;;;;;;;29.65;16.08;;;;;;;;;;4916899;29;20088;-67
2021/12/17 15:49:17;;;;;;;30.90;17.05;;;;;;;;;;4917276;29;20027;-66
2021/12/17 15:51:43;;;;;;;31.38;17.35;;;;;;;;;;4916749;29;20043;-69
2021/12/17 15:54:09;;;;;;;32.75;17.58;;;;;;;;;;4916998;29;20036;-66
2021/12/17 15:56:35;;;;;;;28.38;16.85;;;;;;;;;;4917061;29;20038;-67
2021/12/17 15:59:02;;;;;;;31.50;16.40;;;;;;;;;;4916900;29;20504;-68
2021/12/17 16:01:28;;;;;;;31.35;17.05;;;;;;;;;;4916533;29;20048;-65
2021/12/17 16:03:55;;;;;;;31.83;17.75;;;;;;;;;;4916919;29;20044;-67
2021/12/17 16:06:21;;;;;;;28.75;14.80;;;;;;;;;;4917124;29;20024;-67
2021/12/17 16:08:53;;;;;;;34.80;19.65;;;;;;;;;;4917020;29;20042;-68
2021/12/17 16:11:48;;;;;;;35.70;20.85;;;;;;;;;;4916930;29;20399;-67
2021/12/17 16:22:25;;;;;;;36.85;18.02;;;;;;;;;;4917082;29;20078;-67
2021/12/17 16:24:51;;;;;;;34.95;17.85;;;;;;;;;;4916706;29;20065;-65
2021/12/17 16:27:17;;;;;;;37.72;19.45;;;;;;;;;;4916448;29;20024;-66
2021/12/17 16:29:43;;;;;;;36.08;18.50;;;;;;;;;;4916808;29;20454;-66
2021/12/17 16:32:09;;;;;;;31.65;16.95;;;;;;;;;;4916535;29;20032;-64
2021/12/17 16:34:35;;;;;;;32.85;18.05;;;;;;;;;;4916549;29;20492;-65
2021/12/17 16:37:01;;;;;;;35.70;19.55;;;;;;;;;;4916570;29;20411;-63
2021/12/17 16:39:27;;;;;;;34.25;19.25;;;;;;;;;;4916487;29;20043;-65
2021/12/17 16:41:54;;;;;;;38.08;20.85;;;;;;;;;;4916144;29;20096;-64
2021/12/17 16:44:36;;;;;;;40.92;21.27;;;;;;;;;;4916774;29;20020;-64
2021/12/17 16:47:02;;;;;;;37.13;18.88;;;;;;;;;;4916516;29;20118;-64
2021/12/17 16:49:32;;;;;;;29.52;16.20;;;;;;;;;;4916457;29;20119;-65
2021/12/17 16:51:59;;;;;;;29.27;17.02;;;;;;;;;;4916334;29;20896;-66
2021/12/17 16:54:25;;;;;;;28.25;15.90;;;;;;;;;;4916363;29;20082;-65
2021/12/17 16:56:51;;;;;;;33.92;17.88;;;;;;;;;;4915249;29;20054;-67
2021/12/17 16:59:17;;;;;;;29.50;17.10;;;;;;;;;;4923398;29;20024;-66
2021/12/17 17:01:44;;;;;;;35.03;18.20;;;;;;;;;;4915885;29;20060;-65
2021/12/17 17:04:10;;;;;;;35.80;19.55;;;;;;;;;;4915955;29;20050;-63
2021/12/17 17:06:37;;;;;;;30.17;17.42;;;;;;;;;;4916191;29;20388;-64
2021/12/17 17:09:07;;;;;;;35.75;19.80;;;;;;;;;;4915935;29;20032;-66
2021/12/17 17:11:34;;;;;;;35.25;19.00;;;;;;;;;;4914176;29;20110;-65
2021/12/17 17:14:00;;;;;;;35.63;18.83;;;;;;;;;;4915345;29;20107;-66
2021/12/17 17:16:26;;;;;;;39.05;21.23;;;;;;;;;;4915786;29;20063;-65
2021/12/17 17:18:54;;;;;;;37.38;19.58;;;;;;;;;;4917117;29;20060;-65
2021/12/17 17:21:21;;;;;;;34.78;19.30;;;;;;;;;;4914991;29;20027;-66
2021/12/17 17:23:48;;;;;;;39.42;19.85;;;;;;;;;;4915520;29;20630;-63
2021/12/17 17:26:15;;;;;;;44.40;24.55;;;;;;;;;;4915046;29;20043;-65
2021/12/17 17:28:43;;;;;;;43.00;22.23;;;;;;;;;;4915379;29;20028;-67
2021/12/17 17:31:09;;;;;;;35.90;20.38;;;;;;;;;;4915230;29;20111;-68
2021/12/17 17:33:36;;;;;;;39.33;21.25;;;;;;;;;;4915007;29;20051;-66
2021/12/17 17:36:02;;;;;;;37.00;19.58;;;;;;;;;;4915121;29;20024;-65
2021/12/17 17:38:29;;;;;;;34.63;19.25;;;;;;;;;;4914806;29;20428;-64
2021/12/17 17:40:55;;;;;;;33.80;19.15;;;;;;;;;;4914938;29;20028;-63
2021/12/17 17:43:21;;;;;;;33.80;18.70;;;;;;;;;;4914984;29;20060;-63
2021/12/17 17:45:47;;;;;;;45.60;25.20;;;;;;;;;;4915025;29;20107;-65
2021/12/17 17:48:15;;;;;;;48.83;25.48;;;;;;;;;;4914518;29;20020;-62